createdAt,value
2022-09-09T00:00:19.348Z,15.81
2022-09-09T00:01:43.286Z,15.84
2022-09-09T00:02:41.509Z,15.83
2022-09-09T00:03:48.191Z,15.93
2022-09-09T00:04:54.036Z,15.89
2022-09-09T00:06:19.568Z,16.38
2022-09-09T00:07:26.268Z,16.20
2022-09-09T00:08:32.679Z,15.95
2022-09-09T00:09:33.973Z,15.99
2022-09-09T00:10:37.410Z,16.08
2022-09-09T00:11:52.555Z,16.12
2022-09-09T00:12:57.011Z,16.41
2022-09-09T00:13:57.183Z,16.29
2022-09-09T00:15:38.429Z,16.18
2022-09-09T00:16:41.025Z,16.55
2022-09-09T00:17:55.226Z,16.55
2022-09-09T00:19:05.107Z,16.50
2022-09-09T00:20:15.542Z,16.44
2022-09-09T00:21:16.587Z,16.34
2022-09-09T00:22:14.282Z,16.33
2022-09-09T00:23:34.253Z,16.25
2022-09-09T00:24:54.360Z,16.11
2022-09-09T00:26:00.840Z,16.10
2022-09-09T00:27:05.455Z,16.01
2022-09-09T00:28:02.199Z,16.08
2022-09-09T00:29:05.958Z,16.14
2022-09-09T00:30:19.621Z,16.05
2022-09-09T00:31:31.148Z,15.91
2022-09-09T00:32:31.611Z,15.85
2022-09-09T00:33:28.854Z,15.71
2022-09-09T00:34:28.993Z,15.83
2022-09-09T00:35:30.777Z,15.80
2022-09-09T00:36:30.070Z,15.72
2022-09-09T00:37:27.762Z,15.84
2022-09-09T00:38:36.016Z,15.91
2022-09-09T00:39:38.736Z,15.74
2022-09-09T00:40:40.515Z,15.89
2022-09-09T00:41:46.062Z,15.89
2022-09-09T00:42:44.255Z,15.93
2022-09-09T00:43:42.047Z,15.84
2022-09-09T00:44:40.611Z,15.75
2022-09-09T00:45:58.532Z,15.72
2022-09-09T00:47:15.376Z,15.69
2022-09-09T00:48:13.043Z,15.75
2022-09-09T00:49:16.418Z,15.63
2022-09-09T00:50:56.297Z,15.42
2022-09-09T00:52:21.418Z,15.56
2022-09-09T00:53:38.466Z,15.62
2022-09-09T00:54:45.454Z,15.58
2022-09-09T00:55:46.690Z,15.89
2022-09-09T00:56:55.227Z,15.83
2022-09-09T00:57:53.572Z,15.85
2022-09-09T00:59:28.700Z,15.89
2022-09-09T01:00:29.186Z,16.06
2022-09-09T01:01:25.852Z,15.79
2022-09-09T01:02:33.112Z,15.93
2022-09-09T01:03:48.849Z,15.91
2022-09-09T01:04:45.509Z,16.03
2022-09-09T01:05:51.907Z,15.99
2022-09-09T01:07:00.011Z,15.92
2022-09-09T01:08:01.483Z,15.87
2022-09-09T01:09:11.807Z,15.93
2022-09-09T01:10:15.180Z,15.94
2022-09-09T01:11:26.792Z,16.01
2022-09-09T01:12:40.492Z,15.92
2022-09-09T01:13:37.635Z,16.11
2022-09-09T01:14:37.380Z,16.39
2022-09-09T01:15:35.777Z,16.56
2022-09-09T01:16:33.339Z,16.74
2022-09-09T01:17:51.499Z,16.76
2022-09-09T01:18:54.085Z,16.48
2022-09-09T01:20:10.896Z,16.35
2022-09-09T01:21:42.664Z,16.46
2022-09-09T01:22:46.328Z,16.41
2022-09-09T01:23:58.456Z,16.46
2022-09-09T01:25:15.178Z,16.42
2022-09-09T01:26:24.746Z,16.39
2022-09-09T01:27:24.335Z,16.21
2022-09-09T01:28:26.483Z,16.14
2022-09-09T01:29:24.463Z,16.00
2022-09-09T01:30:22.274Z,16.37
2022-09-09T01:31:24.461Z,16.54
2022-09-09T01:32:43.804Z,16.52
2022-09-09T01:33:40.615Z,16.65
2022-09-09T01:34:41.255Z,16.72
2022-09-09T01:36:03.187Z,16.39
2022-09-09T01:37:11.449Z,16.29
2022-09-09T01:38:08.385Z,16.42
2022-09-09T01:39:05.322Z,16.54
2022-09-09T01:40:02.181Z,16.64
2022-09-09T01:40:59.496Z,16.62
2022-09-09T01:41:57.186Z,16.25
2022-09-09T01:42:55.180Z,16.27
2022-09-09T01:43:52.880Z,15.92
2022-09-09T01:44:49.457Z,16.35
2022-09-09T01:45:49.030Z,16.29
2022-09-09T01:46:45.662Z,16.63
2022-09-09T01:47:42.809Z,16.52
2022-09-09T01:48:41.802Z,16.33
2022-09-09T01:49:38.485Z,16.00
2022-09-09T01:50:35.083Z,15.81
2022-09-09T01:51:32.018Z,15.89
2022-09-09T01:52:28.823Z,15.78
2022-09-09T01:53:26.079Z,15.78
2022-09-09T01:54:25.354Z,15.70
2022-09-09T01:55:38.585Z,15.57
2022-09-09T01:56:56.217Z,15.53
2022-09-09T01:58:20.918Z,15.40
2022-09-09T01:59:20.359Z,15.29
2022-09-09T02:00:17.607Z,15.22
2022-09-09T02:01:25.471Z,15.11
2022-09-09T02:02:31.542Z,15.17
2022-09-09T02:03:29.555Z,15.27
2022-09-09T02:05:04.818Z,15.45
2022-09-09T02:06:13.516Z,15.65
2022-09-09T02:07:30.378Z,16.11
2022-09-09T02:08:32.932Z,16.14
2022-09-09T02:09:31.523Z,16.20
2022-09-09T02:10:44.716Z,15.98
2022-09-09T02:11:42.787Z,15.74
2022-09-09T02:12:47.237Z,15.59
2022-09-09T02:13:46.539Z,15.44
2022-09-09T02:14:57.467Z,15.32
2022-09-09T02:16:02.236Z,15.30
2022-09-09T02:17:04.424Z,15.31
2022-09-09T02:18:04.994Z,15.59
2022-09-09T02:19:18.125Z,15.75
2022-09-09T02:20:15.911Z,15.58
2022-09-09T02:21:14.787Z,15.66
2022-09-09T02:22:11.875Z,15.61
2022-09-09T02:23:11.282Z,15.84
2022-09-09T02:24:11.353Z,15.75
2022-09-09T02:25:11.501Z,16.07
2022-09-09T02:26:11.425Z,15.92
2022-09-09T02:27:10.291Z,15.95
2022-09-09T02:28:10.708Z,15.84
2022-09-09T02:29:14.617Z,16.14
2022-09-09T02:30:12.612Z,16.18
2022-09-09T02:31:10.261Z,16.09
2022-09-09T02:32:10.499Z,16.14
2022-09-09T02:33:10.706Z,15.98
2022-09-09T02:34:11.921Z,16.09
2022-09-09T02:35:15.484Z,15.98
2022-09-09T02:36:17.186Z,16.15
2022-09-09T02:37:16.593Z,16.45
2022-09-09T02:38:16.116Z,16.48
2022-09-09T02:39:13.463Z,16.15
2022-09-09T02:40:13.210Z,16.01
2022-09-09T02:41:10.133Z,16.27
2022-09-09T02:42:07.209Z,16.46
2022-09-09T02:43:04.057Z,16.39
2022-09-09T02:44:01.165Z,16.63
2022-09-09T02:44:57.947Z,16.71
2022-09-09T02:46:02.692Z,16.41
2022-09-09T02:47:20.819Z,16.33
2022-09-09T02:48:40.856Z,16.02
2022-09-09T02:49:50.940Z,16.31
2022-09-09T02:51:16.677Z,16.24
2022-09-09T02:52:19.903Z,15.99
2022-09-09T02:53:24.612Z,15.83
2022-09-09T02:54:32.177Z,15.87
2022-09-09T02:55:40.799Z,15.92
2022-09-09T02:56:42.936Z,16.03
2022-09-09T02:57:41.534Z,15.89
2022-09-09T02:58:38.388Z,16.18
2022-09-09T02:59:35.088Z,16.16
2022-09-09T03:00:32.147Z,16.10
2022-09-09T03:01:28.809Z,16.17
2022-09-09T03:02:26.410Z,16.41
2022-09-09T03:03:23.177Z,16.32
2022-09-09T03:04:19.869Z,16.41
2022-09-09T03:05:16.457Z,16.37
2022-09-09T03:06:13.880Z,16.27
2022-09-09T03:07:11.017Z,16.42
2022-09-09T03:08:07.593Z,16.21
2022-09-09T03:09:04.262Z,16.10
2022-09-09T03:10:00.827Z,15.93
2022-09-09T03:11:02.171Z,15.68
2022-09-09T03:11:58.850Z,15.81
2022-09-09T03:12:56.422Z,15.74
2022-09-09T03:13:53.332Z,16.20
2022-09-09T03:14:49.999Z,15.97
2022-09-09T03:15:46.605Z,15.61
2022-09-09T03:16:44.204Z,15.44
2022-09-09T03:17:41.224Z,15.47
2022-09-09T03:18:37.789Z,15.30
2022-09-09T03:19:35.355Z,15.29
2022-09-09T03:20:32.176Z,15.23
2022-09-09T03:21:28.775Z,15.28
2022-09-09T03:22:26.411Z,15.27
2022-09-09T03:23:23.016Z,15.13
2022-09-09T03:24:19.585Z,14.91
2022-09-09T03:25:16.264Z,14.90
2022-09-09T03:26:13.238Z,15.02
2022-09-09T03:27:10.118Z,14.68
2022-09-09T03:28:06.698Z,14.70
2022-09-09T03:29:03.267Z,14.79
2022-09-09T03:29:59.867Z,14.50
2022-09-09T03:31:00.169Z,14.77
2022-09-09T03:31:56.847Z,14.84
2022-09-09T03:32:53.889Z,14.70
2022-09-09T03:33:50.484Z,14.59
2022-09-09T03:34:50.561Z,14.48
2022-09-09T03:35:49.718Z,14.50
2022-09-09T03:36:46.537Z,14.56
2022-09-09T03:37:43.208Z,14.63
2022-09-09T03:38:39.819Z,14.41
2022-09-09T03:39:36.495Z,14.46
2022-09-09T03:40:33.114Z,14.47
2022-09-09T03:41:30.804Z,14.55
2022-09-09T03:42:28.292Z,14.68
2022-09-09T03:43:26.314Z,14.86
2022-09-09T03:44:22.902Z,14.78
2022-09-09T03:45:19.720Z,14.55
2022-09-09T03:46:16.391Z,14.52
2022-09-09T03:47:12.993Z,14.58
2022-09-09T03:48:12.962Z,14.40
2022-09-09T03:49:11.338Z,14.45
2022-09-09T03:50:11.402Z,14.46
2022-09-09T03:51:08.046Z,14.57
2022-09-09T03:52:04.610Z,14.66
2022-09-09T03:53:01.337Z,14.64
2022-09-09T03:53:59.200Z,14.81
2022-09-09T03:54:56.430Z,14.85
2022-09-09T03:55:55.726Z,14.80
2022-09-09T03:56:52.543Z,15.11
2022-09-09T03:57:49.135Z,14.94
2022-09-09T03:58:45.798Z,15.08
2022-09-09T03:59:42.375Z,15.19
2022-09-09T04:00:43.297Z,15.37
2022-09-09T04:01:41.060Z,15.51
2022-09-09T04:02:37.703Z,15.74
2022-09-09T04:03:34.426Z,15.71
2022-09-09T04:04:31.252Z,15.78
2022-09-09T04:05:28.297Z,15.66
2022-09-09T04:06:25.899Z,15.33
2022-09-09T04:07:22.679Z,15.57
2022-09-09T04:08:20.730Z,15.53
2022-09-09T04:09:17.353Z,15.47
2022-09-09T04:10:14.564Z,15.61
2022-09-09T04:11:11.255Z,15.30
2022-09-09T04:12:07.938Z,15.51
2022-09-09T04:13:05.628Z,15.72
2022-09-09T04:14:02.276Z,15.80
2022-09-09T04:14:58.919Z,15.98
2022-09-09T04:15:58.206Z,15.80
2022-09-09T04:16:54.823Z,15.74
2022-09-09T04:17:52.202Z,15.58
2022-09-09T04:18:49.876Z,15.59
2022-09-09T04:19:46.534Z,15.92
2022-09-09T04:20:44.334Z,15.85
2022-09-09T04:21:42.267Z,15.62
2022-09-09T04:22:39.825Z,15.60
2022-09-09T04:23:37.146Z,15.54
2022-09-09T04:24:33.774Z,15.40
2022-09-09T04:25:30.400Z,15.33
2022-09-09T04:26:27.056Z,15.45
2022-09-09T04:27:23.634Z,15.30
2022-09-09T04:28:22.613Z,15.21
2022-09-09T04:29:19.204Z,15.27
2022-09-09T04:30:15.878Z,15.31
2022-09-09T04:31:22.557Z,15.27
2022-09-09T04:32:19.211Z,15.37
2022-09-09T04:33:16.366Z,15.29
2022-09-09T04:34:13.013Z,15.41
2022-09-09T04:35:09.659Z,15.33
2022-09-09T04:36:07.031Z,15.24
2022-09-09T04:37:03.813Z,15.29
2022-09-09T04:38:00.407Z,15.18
2022-09-09T04:38:57.000Z,15.24
2022-09-09T04:39:53.652Z,15.28
2022-09-09T04:40:52.489Z,15.35
2022-09-09T04:41:49.439Z,15.32
2022-09-09T04:42:46.135Z,15.22
2022-09-09T04:43:43.247Z,15.42
2022-09-09T04:44:40.356Z,15.49
2022-09-09T04:45:37.785Z,15.31
2022-09-09T04:46:35.400Z,15.20
2022-09-09T04:47:32.965Z,15.22
2022-09-09T04:48:29.699Z,15.16
2022-09-09T04:49:27.034Z,15.20
2022-09-09T04:50:23.807Z,14.91
2022-09-09T04:51:20.731Z,14.75
2022-09-09T04:52:18.324Z,14.94
2022-09-09T04:53:14.894Z,15.12
2022-09-09T04:54:12.724Z,14.96
2022-09-09T04:55:10.688Z,15.08
2022-09-09T04:56:13.496Z,15.22
2022-09-09T04:57:15.295Z,15.34
2022-09-09T04:58:14.723Z,15.49
2022-09-09T04:59:11.366Z,15.88
2022-09-09T05:00:11.632Z,16.06
2022-09-09T05:01:10.754Z,15.99
2022-09-09T05:02:08.136Z,16.10
2022-09-09T05:03:10.952Z,16.24
2022-09-09T05:04:07.588Z,16.18
2022-09-09T05:05:04.596Z,16.10
2022-09-09T05:06:32.428Z,16.03
2022-09-09T05:07:30.103Z,16.11
2022-09-09T05:08:26.689Z,16.23
2022-09-09T05:09:23.407Z,16.26
2022-09-09T05:10:20.007Z,16.28
2022-09-09T05:11:27.006Z,16.36
2022-09-09T05:12:26.618Z,16.27
2022-09-09T05:13:23.903Z,16.32
2022-09-09T05:14:20.542Z,16.41
2022-09-09T05:15:17.116Z,16.48
2022-09-09T05:16:15.181Z,16.62
2022-09-09T05:17:12.110Z,16.64
2022-09-09T05:18:08.823Z,16.81
2022-09-09T05:19:05.405Z,16.82
2022-09-09T05:20:06.626Z,16.86
2022-09-09T05:21:07.591Z,16.98
2022-09-09T05:22:05.401Z,16.94
2022-09-09T05:23:01.998Z,16.99
2022-09-09T05:23:59.326Z,17.08
2022-09-09T05:24:55.936Z,17.06
2022-09-09T05:25:59.330Z,17.03
2022-09-09T05:26:59.129Z,17.06
2022-09-09T05:27:55.781Z,17.02
2022-09-09T05:28:52.540Z,17.06
2022-09-09T05:29:49.105Z,17.00
2022-09-09T05:30:45.646Z,17.10
2022-09-09T05:31:42.566Z,17.21
2022-09-09T05:32:39.254Z,17.22
2022-09-09T05:33:37.102Z,17.19
2022-09-09T05:34:33.720Z,17.34
2022-09-09T05:35:30.939Z,17.27
2022-09-09T05:36:27.756Z,17.42
2022-09-09T05:37:24.662Z,17.50
2022-09-09T05:38:23.751Z,17.40
2022-09-09T05:39:22.432Z,17.54
2022-09-09T05:40:19.817Z,17.74
2022-09-09T05:41:17.101Z,17.81
2022-09-09T05:42:13.747Z,17.75
2022-09-09T05:43:10.316Z,17.69
2022-09-09T05:44:07.257Z,17.73
2022-09-09T05:45:04.025Z,17.87
2022-09-09T05:46:09.014Z,17.91
2022-09-09T05:47:05.826Z,17.83
2022-09-09T05:48:02.918Z,17.99
2022-09-09T05:48:59.538Z,18.15
2022-09-09T05:49:56.319Z,18.17
2022-09-09T05:50:55.946Z,18.24
2022-09-09T05:51:52.700Z,18.16
2022-09-09T05:52:50.977Z,18.42
2022-09-09T05:53:47.784Z,18.55
2022-09-09T05:54:44.910Z,18.43
2022-09-09T05:55:41.622Z,18.68
2022-09-09T05:56:38.188Z,18.73
2022-09-09T05:57:35.290Z,18.60
2022-09-09T05:58:33.748Z,18.70
2022-09-09T05:59:30.431Z,18.96
2022-09-09T06:00:27.350Z,18.93
2022-09-09T06:01:27.551Z,18.93
2022-09-09T06:02:24.218Z,18.85
2022-09-09T06:03:24.606Z,18.88
2022-09-09T06:04:25.346Z,19.04
2022-09-09T06:05:23.879Z,19.33
2022-09-09T06:06:23.016Z,19.64
2022-09-09T06:07:19.618Z,19.42
2022-09-09T06:08:16.390Z,19.33
2022-09-09T06:09:13.078Z,19.28
2022-09-09T06:10:09.875Z,19.38
2022-09-09T06:11:15.473Z,19.35
2022-09-09T06:12:12.056Z,19.20
2022-09-09T06:13:10.796Z,19.31
2022-09-09T06:14:08.903Z,19.58
2022-09-09T06:15:06.300Z,19.89
2022-09-09T06:16:03.788Z,19.83
2022-09-09T06:17:00.437Z,20.01
2022-09-09T06:17:57.278Z,19.60
2022-09-09T06:18:55.954Z,19.48
2022-09-09T06:19:53.288Z,19.78
2022-09-09T06:21:07.460Z,19.93
2022-09-09T06:22:04.308Z,19.89
2022-09-09T06:23:00.866Z,19.79
2022-09-09T06:24:01.089Z,19.86
2022-09-09T06:24:57.983Z,19.56
2022-09-09T06:26:07.391Z,19.25
2022-09-09T06:27:04.213Z,19.36
2022-09-09T06:28:00.811Z,19.51
2022-09-09T06:28:59.057Z,19.41
2022-09-09T06:29:55.634Z,19.34
2022-09-09T06:30:59.561Z,19.18
2022-09-09T06:31:56.754Z,19.54
2022-09-09T06:32:56.679Z,19.64
2022-09-09T06:33:56.117Z,19.66
2022-09-09T06:34:52.822Z,19.78
2022-09-09T06:35:54.208Z,19.67
2022-09-09T06:36:50.869Z,19.49
2022-09-09T06:37:49.881Z,19.53
2022-09-09T06:38:47.386Z,19.43
2022-09-09T06:39:44.024Z,19.51
2022-09-09T06:40:40.749Z,19.51
2022-09-09T06:41:39.107Z,19.50
2022-09-09T06:42:35.783Z,19.74
2022-09-09T06:43:32.625Z,19.79
2022-09-09T06:44:33.332Z,20.09
2022-09-09T06:45:32.195Z,20.05
2022-09-09T06:46:32.170Z,20.22
2022-09-09T06:47:29.538Z,20.17
2022-09-09T06:48:27.085Z,20.53
2022-09-09T06:49:23.815Z,20.65
2022-09-09T06:50:21.929Z,20.83
2022-09-09T06:51:23.338Z,20.94
2022-09-09T06:52:20.396Z,20.65
2022-09-09T06:53:20.140Z,20.76
2022-09-09T06:54:16.769Z,20.67
2022-09-09T06:55:14.160Z,20.58
2022-09-09T06:56:13.693Z,20.76
2022-09-09T06:57:35.877Z,20.89
2022-09-09T06:58:30.097Z,20.80
2022-09-09T06:59:27.198Z,20.71
2022-09-09T07:00:26.913Z,20.81
2022-09-09T07:01:25.760Z,20.88
2022-09-09T07:02:22.737Z,20.78
2022-09-09T07:03:19.383Z,20.71
2022-09-09T07:04:16.021Z,20.98
2022-09-09T07:05:12.699Z,21.07
2022-09-09T07:06:27.359Z,21.15
2022-09-09T07:07:25.952Z,21.03
2022-09-09T07:08:22.825Z,20.92
2022-09-09T07:09:19.474Z,21.18
2022-09-09T07:10:16.038Z,21.32
2022-09-09T07:11:12.757Z,21.26
2022-09-09T07:12:09.344Z,21.38
2022-09-09T07:13:05.948Z,21.13
2022-09-09T07:14:02.583Z,21.14
2022-09-09T07:14:59.323Z,20.93
2022-09-09T07:15:55.891Z,20.79
2022-09-09T07:16:54.541Z,20.82
2022-09-09T07:17:54.922Z,20.80
2022-09-09T07:18:52.644Z,21.05
2022-09-09T07:19:49.260Z,21.16
2022-09-09T07:20:55.960Z,21.47
2022-09-09T07:21:52.641Z,21.52
2022-09-09T07:22:49.277Z,21.91
2022-09-09T07:23:46.216Z,21.74
2022-09-09T07:24:42.796Z,20.65
2022-09-09T07:25:46.377Z,20.51
2022-09-09T07:26:43.061Z,20.91
2022-09-09T07:27:39.671Z,21.10
2022-09-09T07:28:36.651Z,21.14
2022-09-09T07:29:33.778Z,21.79
2022-09-09T07:30:30.338Z,21.90
2022-09-09T07:31:32.729Z,22.05
2022-09-09T07:32:31.396Z,21.83
2022-09-09T07:33:28.264Z,21.70
2022-09-09T07:34:24.857Z,21.92
2022-09-09T07:35:21.682Z,22.20
2022-09-09T07:36:24.342Z,22.32
2022-09-09T07:37:21.009Z,22.31
2022-09-09T07:38:17.634Z,22.23
2022-09-09T07:39:15.086Z,22.50
2022-09-09T07:40:11.784Z,22.07
2022-09-09T07:41:13.326Z,21.98
2022-09-09T07:42:12.216Z,21.70
2022-09-09T07:43:11.033Z,21.72
2022-09-09T07:44:14.782Z,21.96
2022-09-09T07:45:11.376Z,22.00
2022-09-09T07:46:08.804Z,22.10
2022-09-09T07:47:05.580Z,22.63
2022-09-09T07:48:02.975Z,22.89
2022-09-09T07:48:59.685Z,22.81
2022-09-09T07:49:57.041Z,22.98
2022-09-09T07:50:53.759Z,23.38
2022-09-09T07:51:50.604Z,22.90
2022-09-09T07:52:47.256Z,23.01
2022-09-09T07:53:44.848Z,23.06
2022-09-09T07:54:41.573Z,23.50
2022-09-09T07:55:38.270Z,23.64
2022-09-09T07:56:36.054Z,22.81
2022-09-09T07:57:32.915Z,22.91
2022-09-09T07:58:29.656Z,23.07
2022-09-09T07:59:26.303Z,23.24
2022-09-09T08:00:23.238Z,23.11
2022-09-09T08:01:23.938Z,23.00
2022-09-09T08:02:20.714Z,23.22
2022-09-09T08:03:17.440Z,22.81
2022-09-09T08:04:17.644Z,23.32
2022-09-09T08:05:14.360Z,24.12
2022-09-09T08:06:13.228Z,24.16
2022-09-09T08:07:09.837Z,24.47
2022-09-09T08:08:07.578Z,24.26
2022-09-09T08:09:05.345Z,24.35
2022-09-09T08:10:02.098Z,23.86
2022-09-09T08:11:13.747Z,24.51
2022-09-09T08:12:10.625Z,24.55
2022-09-09T08:13:17.784Z,24.45
2022-09-09T08:14:15.364Z,23.85
2022-09-09T08:15:13.456Z,23.98
2022-09-09T08:16:18.112Z,23.96
2022-09-09T08:17:14.959Z,23.79
2022-09-09T08:18:11.583Z,23.89
2022-09-09T08:19:09.183Z,24.20
2022-09-09T08:20:06.210Z,24.29
2022-09-09T08:21:12.674Z,24.61
2022-09-09T08:22:09.873Z,24.94
2022-09-09T08:23:06.467Z,24.83
2022-09-09T08:24:05.985Z,25.01
2022-09-09T08:25:03.280Z,25.28
2022-09-09T08:26:08.327Z,25.46
2022-09-09T08:27:05.069Z,25.27
2022-09-09T08:28:02.427Z,25.09
2022-09-09T08:29:01.007Z,24.81
2022-09-09T08:29:57.652Z,25.16
2022-09-09T08:30:54.325Z,25.37
2022-09-09T08:31:55.570Z,25.29
2022-09-09T08:32:53.834Z,25.55
2022-09-09T08:33:53.409Z,25.59
2022-09-09T08:34:54.651Z,25.49
2022-09-09T08:35:53.244Z,25.18
2022-09-09T08:36:51.443Z,24.67
2022-09-09T08:37:51.497Z,24.74
2022-09-09T08:38:55.435Z,25.19
2022-09-09T08:39:54.296Z,24.83
2022-09-09T08:40:57.162Z,24.81
2022-09-09T08:42:12.863Z,24.87
2022-09-09T08:43:09.576Z,25.11
2022-09-09T08:44:15.768Z,25.11
2022-09-09T08:45:44.246Z,24.93
2022-09-09T08:47:10.412Z,24.93
2022-09-09T08:48:28.985Z,24.52
2022-09-09T08:49:47.889Z,24.91
2022-09-09T08:50:47.723Z,24.71
2022-09-09T08:51:44.413Z,24.58
2022-09-09T08:53:02.827Z,24.33
2022-09-09T08:54:03.071Z,24.57
2022-09-09T08:55:13.458Z,24.56
2022-09-09T08:56:17.932Z,24.65
2022-09-09T08:57:27.596Z,24.42
2022-09-09T08:58:29.020Z,24.63
2022-09-09T08:59:25.655Z,24.75
2022-09-09T09:00:22.630Z,24.80
2022-09-09T09:01:28.380Z,24.71
2022-09-09T09:02:25.072Z,24.79
2022-09-09T09:03:33.519Z,24.74
2022-09-09T09:04:30.303Z,24.83
2022-09-09T09:05:38.680Z,24.90
2022-09-09T09:06:44.403Z,25.28
2022-09-09T09:07:56.031Z,25.34
2022-09-09T09:09:03.605Z,25.03
2022-09-09T09:10:37.521Z,24.76
2022-09-09T09:11:36.711Z,25.06
2022-09-09T09:12:45.695Z,25.18
2022-09-09T09:13:53.253Z,25.67
2022-09-09T09:14:50.577Z,25.47
2022-09-09T09:15:53.493Z,25.61
2022-09-09T09:17:00.734Z,25.49
2022-09-09T09:17:58.514Z,25.16
2022-09-09T09:18:57.081Z,25.65
2022-09-09T09:19:53.653Z,26.22
2022-09-09T09:21:19.731Z,24.98
2022-09-09T09:22:26.368Z,25.00
2022-09-09T09:23:29.321Z,25.10
2022-09-09T09:24:49.125Z,25.38
2022-09-09T09:25:45.963Z,26.02
2022-09-09T09:26:44.666Z,26.11
2022-09-09T09:27:49.014Z,26.57
2022-09-09T09:28:46.355Z,26.19
2022-09-09T09:30:03.743Z,25.97
2022-09-09T09:31:11.742Z,26.10
2022-09-09T09:32:14.800Z,26.16
2022-09-09T09:33:25.537Z,25.88
2022-09-09T09:34:24.358Z,25.77
2022-09-09T09:35:21.058Z,25.80
2022-09-09T09:36:18.050Z,25.74
2022-09-09T09:37:20.639Z,25.33
2022-09-09T09:40:59.411Z,25.27
2022-09-09T09:41:56.387Z,25.78
2022-09-09T09:42:53.383Z,25.91
2022-09-09T09:43:55.422Z,25.93
2022-09-09T09:44:52.114Z,25.90
2022-09-09T09:46:06.896Z,25.89
2022-09-09T09:47:08.816Z,25.77
2022-09-09T09:48:13.825Z,25.80
2022-09-09T09:49:11.179Z,26.04
2022-09-09T09:50:19.313Z,26.27
2022-09-09T09:51:18.997Z,26.43
2022-09-09T09:52:21.253Z,25.97
2022-09-09T09:53:24.949Z,25.76
2022-09-09T09:54:30.592Z,25.84
2022-09-09T09:55:30.985Z,25.67
2022-09-09T09:56:33.523Z,25.86
2022-09-09T09:57:32.408Z,25.88
2022-09-09T09:58:33.380Z,25.64
2022-09-09T09:59:39.189Z,25.59
2022-09-09T10:00:37.223Z,25.39
2022-09-09T10:01:35.327Z,25.19
2022-09-09T10:02:40.313Z,25.05
2022-09-09T10:03:40.255Z,24.95
2022-09-09T10:04:36.939Z,24.81
2022-09-09T10:05:37.359Z,24.72
2022-09-09T10:06:36.597Z,24.60
2022-09-09T10:07:34.372Z,24.76
2022-09-09T10:08:35.894Z,24.72
2022-09-09T10:09:33.869Z,24.59
2022-09-09T10:10:50.357Z,25.00
2022-09-09T10:12:25.150Z,24.99
2022-09-09T10:13:42.483Z,24.96
2022-09-09T10:14:54.388Z,24.54
2022-09-09T10:16:42.139Z,24.77
2022-09-09T10:18:16.116Z,24.71
2022-09-09T10:19:38.813Z,24.90
2022-09-09T10:20:45.557Z,25.09
2022-09-09T10:21:47.944Z,25.07
2022-09-09T10:22:55.324Z,24.57
2022-09-09T10:24:07.261Z,24.57
2022-09-09T10:25:19.444Z,24.44
2022-09-09T10:26:40.791Z,24.42
2022-09-09T10:27:44.031Z,24.32
2022-09-09T10:28:49.402Z,24.16
2022-09-09T10:29:54.841Z,24.28
2022-09-09T10:31:12.708Z,24.14
2022-09-09T10:32:09.299Z,23.99
2022-09-09T10:34:21.877Z,23.94
2022-09-09T10:35:27.018Z,24.25
2022-09-09T10:36:27.143Z,24.31
2022-09-09T10:37:45.355Z,24.27
2022-09-09T10:38:46.332Z,24.10
2022-09-09T10:39:43.843Z,24.18
2022-09-09T10:40:46.883Z,24.34
2022-09-09T10:42:13.455Z,24.22
2022-09-09T10:43:35.515Z,24.20
2022-09-09T10:44:40.713Z,24.21
2022-09-09T10:45:55.957Z,24.17
2022-09-09T10:47:16.880Z,24.35
2022-09-09T10:48:35.354Z,24.37
2022-09-09T10:50:09.579Z,24.52
2022-09-09T10:51:16.006Z,24.49
2022-09-09T10:53:00.925Z,24.57
2022-09-09T10:54:14.916Z,24.52
2022-09-09T10:55:30.156Z,23.57
2022-09-09T10:56:27.931Z,23.97
2022-09-09T10:57:56.801Z,24.13
2022-09-09T10:59:27.306Z,24.21
2022-09-09T11:00:46.475Z,24.33
2022-09-09T11:01:49.578Z,24.53
2022-09-09T11:02:52.331Z,24.42
2022-09-09T11:03:57.333Z,24.35
2022-09-09T11:04:59.942Z,23.74
2022-09-09T11:06:01.463Z,23.63
2022-09-09T11:07:06.558Z,23.40
2022-09-09T11:08:13.556Z,23.97
2022-09-09T11:09:18.227Z,24.25
2022-09-09T11:10:27.626Z,24.31
2022-09-09T11:11:40.356Z,24.20
2022-09-09T11:12:40.980Z,24.40
2022-09-09T11:13:53.288Z,24.93
2022-09-09T11:14:56.810Z,24.64
2022-09-09T11:16:01.609Z,24.96
2022-09-09T11:17:02.913Z,24.85
2022-09-09T11:18:02.877Z,25.02
2022-09-09T11:19:05.651Z,25.17
2022-09-09T11:20:02.500Z,25.18
2022-09-09T11:21:04.442Z,25.52
2022-09-09T11:22:05.988Z,25.27
2022-09-09T11:23:14.220Z,24.30
2022-09-09T11:24:27.054Z,24.71
2022-09-09T11:25:30.553Z,25.07
2022-09-09T11:26:34.574Z,25.05
2022-09-09T11:27:34.893Z,25.11
2022-09-09T11:28:56.477Z,25.13
2022-09-09T11:30:27.214Z,24.96
2022-09-09T11:31:53.897Z,25.12
2022-09-09T11:33:25.989Z,25.05
2022-09-09T11:34:40.449Z,24.68
2022-09-09T11:35:48.938Z,24.97
2022-09-09T11:36:51.543Z,25.23
2022-09-09T11:38:12.524Z,25.33
2022-09-09T11:39:49.622Z,24.68
2022-09-09T11:40:47.990Z,24.71
2022-09-09T11:41:44.763Z,24.68
2022-09-09T11:42:42.590Z,24.67
2022-09-09T11:43:48.998Z,24.91
2022-09-09T11:44:45.943Z,24.90
2022-09-09T11:45:44.074Z,24.94
2022-09-09T11:46:42.604Z,25.04
2022-09-09T11:47:39.376Z,25.06
2022-09-09T11:48:46.871Z,25.04
2022-09-09T11:49:44.271Z,24.93
2022-09-09T11:50:41.282Z,24.95
2022-09-09T11:51:38.061Z,24.98
2022-09-09T11:52:44.434Z,24.68
2022-09-09T11:54:02.247Z,24.98
2022-09-09T11:55:34.159Z,25.33
2022-09-09T11:56:35.420Z,25.51
2022-09-09T11:57:38.572Z,25.50
2022-09-09T11:58:44.223Z,25.52
2022-09-09T11:59:53.345Z,25.60
2022-09-09T12:00:51.126Z,25.62
2022-09-09T12:01:57.419Z,25.05
2022-09-09T12:02:54.683Z,24.61
2022-09-09T12:03:57.218Z,24.61
2022-09-09T12:05:23.359Z,24.84
2022-09-09T12:06:25.899Z,25.09
2022-09-09T12:07:30.481Z,25.70
2022-09-09T12:08:30.266Z,25.82
2022-09-09T12:09:46.695Z,26.13
2022-09-09T12:10:55.171Z,25.62
2022-09-09T12:11:52.703Z,25.02
2022-09-09T12:12:49.346Z,24.90
2022-09-09T12:13:57.189Z,25.51
2022-09-09T12:15:04.475Z,25.59
2022-09-09T12:16:03.545Z,26.00
2022-09-09T12:17:11.151Z,25.61
2022-09-09T12:18:15.433Z,25.98
2022-09-09T12:19:26.270Z,26.31
2022-09-09T12:20:37.001Z,26.49
2022-09-09T12:21:48.304Z,26.35
2022-09-09T12:23:17.373Z,25.92
2022-09-09T12:24:30.170Z,25.97
2022-09-09T12:25:47.963Z,26.30
2022-09-09T12:26:51.853Z,26.58
2022-09-09T12:28:02.369Z,26.94
2022-09-09T12:29:13.555Z,27.23
2022-09-09T12:30:15.347Z,26.92
2022-09-09T12:31:32.151Z,26.88
2022-09-09T12:32:30.170Z,25.62
2022-09-09T12:33:35.735Z,26.03
2022-09-09T12:34:51.949Z,26.20
2022-09-09T12:35:56.624Z,25.96
2022-09-09T12:37:00.984Z,26.05
2022-09-09T12:38:01.223Z,26.37
2022-09-09T12:39:11.581Z,26.65
2022-09-09T12:40:22.585Z,26.13
2022-09-09T12:41:22.187Z,26.84
2022-09-09T12:42:20.827Z,26.38
2022-09-09T12:43:23.043Z,25.85
2022-09-09T12:44:19.632Z,25.92
2022-09-09T12:45:19.486Z,26.02
2022-09-09T12:46:27.314Z,25.92
2022-09-09T12:47:56.450Z,25.54
2022-09-09T12:48:54.787Z,26.21
2022-09-09T12:49:52.157Z,26.46
2022-09-09T12:50:52.497Z,26.61
2022-09-09T12:51:50.295Z,26.68
2022-09-09T12:52:48.946Z,26.34
2022-09-09T12:53:47.028Z,26.24
2022-09-09T12:54:51.661Z,26.18
2022-09-09T12:56:01.097Z,26.48
2022-09-09T12:56:58.425Z,25.63
2022-09-09T12:57:55.318Z,25.89
2022-09-09T12:58:53.584Z,26.19
2022-09-09T12:59:50.134Z,26.84
2022-09-09T13:00:53.278Z,27.28
2022-09-09T13:01:57.845Z,26.89
2022-09-09T13:02:54.478Z,26.55
2022-09-09T13:03:51.577Z,26.45
2022-09-09T13:04:48.657Z,26.51
2022-09-09T13:05:45.321Z,26.60
2022-09-09T13:06:42.029Z,26.55
2022-09-09T13:07:38.680Z,27.01
2022-09-09T13:08:35.500Z,26.92
2022-09-09T13:09:33.192Z,27.12
2022-09-09T13:10:36.962Z,27.20
2022-09-09T13:11:43.357Z,27.16
2022-09-09T13:12:41.020Z,27.30
2022-09-09T13:13:41.208Z,27.07
2022-09-09T13:14:41.059Z,26.63
2022-09-09T13:15:37.670Z,26.86
2022-09-09T13:16:41.874Z,26.78
2022-09-09T13:17:39.903Z,26.60
2022-09-09T13:18:41.277Z,26.46
2022-09-09T13:19:40.009Z,26.80
2022-09-09T13:20:36.657Z,26.24
2022-09-09T13:21:40.399Z,26.51
2022-09-09T13:22:39.906Z,26.22
2022-09-09T13:23:38.601Z,25.97
2022-09-09T13:24:36.217Z,26.10
2022-09-09T13:25:33.042Z,26.44
2022-09-09T13:26:31.112Z,26.33